Elm Grove, Wisconsin
Current Conditions -  °F | °C
As of 3:45 PM on Friday 28 Nov 2014 (Local Time) from KMWC Reporting Station
Broken Clouds Broken Clouds  
Wind Chill: 20°   Ceiling: 10000
Heat Index: 28°   Visibility: 10mi
Dew Point: 18°   Wind: 9mph
Humidity: 64%   Direction: 190°S
Pressure: 29.99"   Gusts: NA
Location:  43.05°N, 88.08°W
Report Text: KMWC 282145Z AUTO 19008KT 10SM SCT085 BKN100 M02/M08 A2999
Loading
Personal Weather Stations






























Interactive Weather Map New forecast layout! Learn more

10-Day Weather Forecast

Advertisements
Track Severe Weather on mobile